createdAt,value
2022-09-16T00:00:46.263Z,2.77
2022-09-16T00:03:13.688Z,2.20
2022-09-16T00:05:51.464Z,3.20
2022-09-16T00:08:19.229Z,2.03
2022-09-16T00:10:45.864Z,1.97
2022-09-16T00:13:13.114Z,1.87
2022-09-16T00:15:47.817Z,2.17
2022-09-16T00:18:14.754Z,2.30
2022-09-16T00:20:46.589Z,2.27
2022-09-16T00:23:13.253Z,2.00
2022-09-16T00:25:39.919Z,2.00
2022-09-16T00:28:06.550Z,2.07
2022-09-16T00:30:33.352Z,2.00
2022-09-16T00:33:02.304Z,2.23
2022-09-16T00:35:28.901Z,2.20
2022-09-16T00:37:55.579Z,2.00
2022-09-16T00:40:23.022Z,2.07
2022-09-16T00:42:49.676Z,2.10
2022-09-16T00:45:20.654Z,2.13
2022-09-16T00:47:52.867Z,1.70
2022-09-16T00:50:25.473Z,2.67
2022-09-16T00:52:52.712Z,2.27
2022-09-16T00:55:24.689Z,2.50
2022-09-16T00:57:52.131Z,2.53
2022-09-16T01:00:18.854Z,2.27
2022-09-16T01:02:46.268Z,2.27
2022-09-16T01:05:16.383Z,2.97
2022-09-16T01:07:48.662Z,2.37
2022-09-16T01:10:18.020Z,2.67
2022-09-16T01:12:46.649Z,2.30
2022-09-16T01:15:14.644Z,3.03
2022-09-16T01:18:19.684Z,2.83
2022-09-16T01:21:20.201Z,3.10
2022-09-16T01:23:57.068Z,2.80
2022-09-16T01:27:01.932Z,2.67
2022-09-16T01:29:59.413Z,3.40
2022-09-16T01:32:37.417Z,3.17
2022-09-16T01:35:09.725Z,3.10
2022-09-16T01:37:48.458Z,3.10
2022-09-16T01:40:21.178Z,3.33
2022-09-16T01:43:17.188Z,3.00
2022-09-16T01:45:55.146Z,3.13
2022-09-16T01:48:43.178Z,3.40
2022-09-16T01:51:22.415Z,3.23
2022-09-16T01:54:07.748Z,5.80
2022-09-16T01:56:53.121Z,3.40
2022-09-16T01:59:42.643Z,3.37
2022-09-16T02:02:11.640Z,3.90
2022-09-16T02:04:44.466Z,3.80
2022-09-16T02:07:15.654Z,4.37
2022-09-16T02:09:46.122Z,3.73
2022-09-16T02:12:21.016Z,3.53
2022-09-16T02:14:50.957Z,3.57
2022-09-16T02:17:20.752Z,3.93
2022-09-16T02:19:57.292Z,4.00
2022-09-16T02:22:33.157Z,4.07
2022-09-16T02:25:02.985Z,3.60
2022-09-16T02:27:30.833Z,3.60
2022-09-16T02:30:02.087Z,4.17
2022-09-16T02:32:34.143Z,3.93
2022-09-16T02:35:02.099Z,3.80
2022-09-16T02:37:37.425Z,3.97
2022-09-16T02:40:07.869Z,4.30
2022-09-16T02:42:34.785Z,3.80
2022-09-16T02:45:02.947Z,3.90
2022-09-16T02:47:59.059Z,3.90
2022-09-16T02:50:39.982Z,4.20
2022-09-16T02:53:38.140Z,3.80
2022-09-16T02:56:11.550Z,4.43
2022-09-16T02:58:38.426Z,3.93
2022-09-16T03:01:05.590Z,3.90
2022-09-16T03:03:32.231Z,3.97
2022-09-16T03:06:27.017Z,3.60
2022-09-16T03:08:56.515Z,3.70
2022-09-16T03:11:32.967Z,3.70
2022-09-16T03:14:05.401Z,3.77
2022-09-16T03:16:46.180Z,3.60
2022-09-16T03:19:48.110Z,3.60
2022-09-16T03:22:29.201Z,3.47
2022-09-16T03:25:10.520Z,3.30
2022-09-16T03:27:43.211Z,3.53
2022-09-16T03:30:11.355Z,3.60
2022-09-16T03:32:41.700Z,3.10
2022-09-16T03:35:15.363Z,3.50
2022-09-16T03:37:42.850Z,3.10
2022-09-16T03:40:13.622Z,3.87
2022-09-16T03:42:41.552Z,3.43
2022-09-16T03:45:10.715Z,3.57
2022-09-16T03:47:37.336Z,3.47
2022-09-16T03:50:04.702Z,3.60
2022-09-16T03:52:31.367Z,3.40
2022-09-16T03:54:58.025Z,3.43
2022-09-16T03:57:24.638Z,3.70
2022-09-16T03:59:51.177Z,3.57
2022-09-16T04:02:17.757Z,3.70
2022-09-16T04:04:51.676Z,3.57
2022-09-16T04:07:18.390Z,4.30
2022-09-16T04:09:44.928Z,4.10
2022-09-16T04:12:11.561Z,3.87
2022-09-16T04:14:38.199Z,4.13
2022-09-16T04:17:07.912Z,3.93
2022-09-16T04:19:34.521Z,3.70
2022-09-16T04:22:01.137Z,3.90
2022-09-16T04:24:27.760Z,4.00
2022-09-16T04:26:54.346Z,4.00
2022-09-16T04:29:28.396Z,4.10
2022-09-16T04:31:55.463Z,3.70
2022-09-16T04:34:22.121Z,4.10
2022-09-16T04:36:48.776Z,4.43
2022-09-16T04:39:15.485Z,4.33
2022-09-16T04:41:42.181Z,3.83
2022-09-16T04:44:10.410Z,3.73
2022-09-16T04:46:37.085Z,4.40
2022-09-16T04:49:03.934Z,3.70
2022-09-16T04:51:32.151Z,3.40
2022-09-16T04:54:02.660Z,3.90
2022-09-16T04:56:31.437Z,4.07
2022-09-16T04:59:03.224Z,4.07
2022-09-16T05:01:32.441Z,4.57
2022-09-16T05:04:01.300Z,3.50
2022-09-16T05:06:36.694Z,3.93
2022-09-16T05:09:03.740Z,3.67
2022-09-16T05:11:35.960Z,3.53
2022-09-16T05:14:04.185Z,3.27
2022-09-16T05:16:32.492Z,3.53
2022-09-16T05:19:00.505Z,3.40
2022-09-16T05:21:28.284Z,2.90
2022-09-16T05:23:59.314Z,3.13
2022-09-16T05:26:28.675Z,3.23
2022-09-16T05:28:55.329Z,3.07
2022-09-16T05:31:24.408Z,3.10
2022-09-16T05:34:11.123Z,3.00
2022-09-16T05:36:39.144Z,2.80
2022-09-16T05:39:24.617Z,2.73
2022-09-16T05:42:00.019Z,2.80
2022-09-16T05:44:27.828Z,2.80
2022-09-16T05:46:55.226Z,2.90
2022-09-16T05:49:23.482Z,3.47
2022-09-16T05:51:50.548Z,3.43
2022-09-16T05:54:20.549Z,2.77
2022-09-16T05:56:47.675Z,2.73
2022-09-16T05:59:14.919Z,2.70
2022-09-16T06:01:41.944Z,2.93
2022-09-16T06:04:12.085Z,2.40
2022-09-16T06:06:40.713Z,2.80
2022-09-16T06:09:12.836Z,2.77
2022-09-16T06:11:41.849Z,2.60
2022-09-16T06:14:09.098Z,2.47
2022-09-16T06:16:36.253Z,2.60
2022-09-16T06:19:05.552Z,2.70
2022-09-16T06:21:32.211Z,2.87
2022-09-16T06:23:58.819Z,2.97
2022-09-16T06:26:27.074Z,2.83
2022-09-16T06:28:55.693Z,2.60
2022-09-16T06:31:24.241Z,3.00
2022-09-16T06:33:51.214Z,2.50
2022-09-16T06:36:20.045Z,2.50
2022-09-16T06:38:47.290Z,2.60
2022-09-16T06:41:17.108Z,2.80
2022-09-16T06:43:44.417Z,3.00
2022-09-16T06:46:16.446Z,2.57
2022-09-16T06:48:50.514Z,2.83
2022-09-16T06:51:19.439Z,2.37
2022-09-16T06:53:46.858Z,2.40
2022-09-16T06:56:15.119Z,2.40
2022-09-16T06:58:42.979Z,2.43
2022-09-16T07:01:15.008Z,2.30
2022-09-16T07:03:46.785Z,2.30
2022-09-16T07:06:20.341Z,2.57
2022-09-16T07:08:47.618Z,2.50
2022-09-16T07:11:15.574Z,2.37
2022-09-16T07:13:43.331Z,1.93
2022-09-16T07:16:14.014Z,2.40
2022-09-16T07:18:41.858Z,2.17
2022-09-16T07:21:13.934Z,2.33
2022-09-16T07:23:41.257Z,2.57
2022-09-16T07:26:07.909Z,2.33
2022-09-16T07:28:35.360Z,2.03
2022-09-16T07:31:03.696Z,2.50
2022-09-16T07:33:33.243Z,2.10
2022-09-16T07:36:00.526Z,2.30
2022-09-16T07:38:27.665Z,2.10
2022-09-16T07:40:54.295Z,2.47
2022-09-16T07:43:21.159Z,2.00
2022-09-16T07:45:56.144Z,2.47
2022-09-16T07:48:23.113Z,3.30
2022-09-16T07:51:01.186Z,2.00
2022-09-16T07:53:29.719Z,1.80
2022-09-16T07:56:08.021Z,1.97
2022-09-16T07:58:34.778Z,2.40
2022-09-16T08:01:04.718Z,1.90
2022-09-16T08:03:36.261Z,1.90
2022-09-16T08:06:14.463Z,1.73
2022-09-16T08:08:41.803Z,1.77
2022-09-16T08:11:09.159Z,1.80
2022-09-16T08:13:38.995Z,1.80
2022-09-16T08:16:19.544Z,2.17
2022-09-16T08:18:47.640Z,2.37
2022-09-16T08:21:16.595Z,1.93
2022-09-16T08:23:43.640Z,2.03
2022-09-16T08:26:18.670Z,1.83
2022-09-16T08:29:04.914Z,2.10
2022-09-16T08:31:33.160Z,1.80
2022-09-16T08:34:06.025Z,2.00
2022-09-16T08:36:33.745Z,2.07
2022-09-16T08:39:00.676Z,1.90
2022-09-16T08:41:46.914Z,1.50
2022-09-16T08:44:28.606Z,1.80
2022-09-16T08:47:01.852Z,1.50
2022-09-16T08:49:45.579Z,1.60
2022-09-16T08:52:30.129Z,1.60
2022-09-16T08:55:18.796Z,1.40
2022-09-16T08:58:14.683Z,1.60
2022-09-16T09:00:44.223Z,1.73
2022-09-16T09:03:28.603Z,1.70
2022-09-16T09:05:56.980Z,1.50
2022-09-16T09:08:29.950Z,1.70
2022-09-16T09:11:07.912Z,1.60
2022-09-16T09:13:57.112Z,1.50
2022-09-16T09:16:42.694Z,2.10
2022-09-16T09:19:13.617Z,1.60
2022-09-16T09:22:04.525Z,1.87
2022-09-16T09:24:44.267Z,1.73
2022-09-16T09:27:42.544Z,1.60
2022-09-16T09:30:26.888Z,1.83
2022-09-16T09:33:44.500Z,1.70
2022-09-16T09:36:28.690Z,1.60
2022-09-16T09:39:14.143Z,1.77
2022-09-16T09:41:55.313Z,1.70
2022-09-16T09:44:46.614Z,2.40
2022-09-16T09:47:21.936Z,1.77
2022-09-16T09:49:56.588Z,1.50
2022-09-16T09:52:54.136Z,1.63
2022-09-16T09:55:24.343Z,1.30
2022-09-16T09:58:08.938Z,1.60
2022-09-16T10:00:35.590Z,1.50
2022-09-16T10:03:06.329Z,1.63
2022-09-16T10:05:33.975Z,1.23
2022-09-16T10:08:30.997Z,2.13
2022-09-16T10:11:01.666Z,1.40
2022-09-16T10:13:30.259Z,1.53
2022-09-16T10:16:14.519Z,1.50
2022-09-16T10:18:41.232Z,1.30
2022-09-16T10:21:09.966Z,2.00
2022-09-16T10:23:39.142Z,1.47
2022-09-16T10:26:06.005Z,1.33
2022-09-16T10:28:33.170Z,1.60
2022-09-16T10:31:00.996Z,1.50
2022-09-16T10:33:34.611Z,1.97
2022-09-16T10:36:03.266Z,1.87
2022-09-16T10:38:39.780Z,1.60
2022-09-16T10:41:14.606Z,1.63
2022-09-16T10:43:48.110Z,1.53
2022-09-16T10:46:16.219Z,1.70
2022-09-16T10:48:43.629Z,1.60
2022-09-16T10:51:23.151Z,1.70
2022-09-16T10:53:57.291Z,1.83
2022-09-16T10:56:29.376Z,1.67
2022-09-16T10:59:09.702Z,1.60
2022-09-16T11:02:04.457Z,1.50
2022-09-16T11:05:08.362Z,1.83
2022-09-16T11:07:59.778Z,1.90
2022-09-16T11:10:49.671Z,1.70
2022-09-16T11:13:21.137Z,1.40
2022-09-16T11:16:09.500Z,1.67
2022-09-16T11:18:36.074Z,1.67
2022-09-16T11:21:08.840Z,1.47
2022-09-16T11:24:03.079Z,2.00
2022-09-16T11:27:00.679Z,1.40
2022-09-16T11:29:33.239Z,1.60
2022-09-16T11:32:02.831Z,1.67
2022-09-16T11:34:57.936Z,1.27
2022-09-16T11:37:33.806Z,1.70
2022-09-16T11:40:15.771Z,1.30
2022-09-16T11:42:47.473Z,1.40
2022-09-16T11:45:35.064Z,1.13
2022-09-16T11:48:18.548Z,1.30
2022-09-16T11:51:12.592Z,1.47
2022-09-16T11:54:02.277Z,1.53
2022-09-16T11:56:42.027Z,1.30
2022-09-16T11:59:26.803Z,1.43
2022-09-16T12:02:21.521Z,1.70
2022-09-16T12:04:53.764Z,1.87
2022-09-16T12:07:32.320Z,1.20
2022-09-16T12:10:05.371Z,1.53
2022-09-16T12:12:39.423Z,1.40
2022-09-16T12:15:16.739Z,1.70
2022-09-16T12:17:58.395Z,1.37
2022-09-16T12:20:31.564Z,1.37
2022-09-16T12:23:04.717Z,0.97
2022-09-16T12:25:38.345Z,1.10
2022-09-16T12:28:13.417Z,1.10
2022-09-16T12:30:46.086Z,1.40
2022-09-16T12:33:26.295Z,1.70
2022-09-16T12:36:00.030Z,1.20
2022-09-16T12:38:26.843Z,1.40
2022-09-16T12:41:12.261Z,1.77
2022-09-16T12:43:44.886Z,1.40
2022-09-16T12:46:33.966Z,1.30
2022-09-16T12:49:14.560Z,1.23
2022-09-16T12:51:52.599Z,1.47
2022-09-16T12:54:51.280Z,1.10
2022-09-16T12:57:53.148Z,1.23
2022-09-16T13:01:04.884Z,1.17
2022-09-16T13:03:32.842Z,1.20
2022-09-16T13:06:04.176Z,1.27
2022-09-16T13:08:31.888Z,1.50
2022-09-16T13:11:38.987Z,1.47
2022-09-16T13:13:57.155Z,1.40
2022-09-16T13:16:35.476Z,1.57
2022-09-16T13:19:55.893Z,1.50
2022-09-16T13:22:32.350Z,1.47
2022-09-16T13:25:09.399Z,1.50
2022-09-16T13:27:38.345Z,2.13
2022-09-16T13:30:16.875Z,1.60
2022-09-16T13:32:52.625Z,1.60
2022-09-16T13:35:24.544Z,1.60
2022-09-16T13:37:54.447Z,1.53
2022-09-16T13:40:25.062Z,1.90
2022-09-16T13:43:07.935Z,1.50
2022-09-16T13:45:39.997Z,1.70
2022-09-16T13:48:13.625Z,1.77
2022-09-16T13:51:00.600Z,1.40
2022-09-16T13:53:32.455Z,1.50
2022-09-16T13:56:10.790Z,1.50
2022-09-16T13:58:47.067Z,1.53
2022-09-16T14:01:28.029Z,1.57
2022-09-16T14:04:08.854Z,1.50
2022-09-16T14:06:51.600Z,1.93
2022-09-16T14:09:26.974Z,1.80
2022-09-16T14:12:18.900Z,1.60
2022-09-16T14:14:47.861Z,1.40
2022-09-16T14:17:18.650Z,1.17
2022-09-16T14:19:52.446Z,1.20
2022-09-16T14:22:26.731Z,1.10
2022-09-16T14:25:05.780Z,1.17
2022-09-16T14:27:40.223Z,1.17
2022-09-16T14:30:14.871Z,1.40
2022-09-16T14:32:41.497Z,1.10
2022-09-16T14:35:21.003Z,1.10
2022-09-16T14:37:50.500Z,1.30
2022-09-16T14:40:19.989Z,1.20
2022-09-16T14:43:04.533Z,1.23
2022-09-16T14:45:32.131Z,1.27
2022-09-16T14:48:01.594Z,1.30
2022-09-16T14:50:36.131Z,1.30
2022-09-16T14:53:06.069Z,1.10
2022-09-16T14:55:36.239Z,1.07
2022-09-16T14:58:05.685Z,1.77
2022-09-16T15:00:54.326Z,1.10
2022-09-16T15:03:35.089Z,1.70
2022-09-16T15:06:06.894Z,1.47
2022-09-16T15:09:15.502Z,1.50
2022-09-16T15:11:52.404Z,1.17
2022-09-16T15:14:19.337Z,1.60
2022-09-16T15:16:49.558Z,1.30
2022-09-16T15:19:21.242Z,1.57
2022-09-16T15:21:47.989Z,1.63
2022-09-16T15:24:28.392Z,1.37
2022-09-16T15:26:55.424Z,1.30
2022-09-16T15:29:24.930Z,1.60
2022-09-16T15:31:51.546Z,1.47
2022-09-16T15:34:21.038Z,1.33
2022-09-16T15:36:50.762Z,1.57
2022-09-16T15:39:31.031Z,1.40
2022-09-16T15:42:25.469Z,1.40
2022-09-16T15:44:55.163Z,1.40
2022-09-16T15:47:25.388Z,1.33
2022-09-16T15:50:03.958Z,1.30
2022-09-16T15:52:48.939Z,1.23
2022-09-16T15:55:28.420Z,1.63
2022-09-16T15:58:06.665Z,2.13
2022-09-16T16:01:10.111Z,1.57
2022-09-16T16:03:57.638Z,1.27
2022-09-16T16:06:51.448Z,1.50
2022-09-16T16:09:27.436Z,1.40
2022-09-16T16:11:57.588Z,1.60
2022-09-16T16:14:25.231Z,1.40
2022-09-16T16:17:11.750Z,1.60
2022-09-16T16:19:39.182Z,1.67
2022-09-16T16:22:07.050Z,1.93
2022-09-16T16:24:33.709Z,2.00
2022-09-16T16:27:00.329Z,1.60
2022-09-16T16:29:27.015Z,1.40
2022-09-16T16:32:07.644Z,1.83
2022-09-16T16:34:36.453Z,1.67
2022-09-16T16:37:03.998Z,1.50
2022-09-16T16:39:30.700Z,2.30
2022-09-16T16:41:57.599Z,1.97
2022-09-16T16:44:24.889Z,1.60
2022-09-16T16:46:52.662Z,1.97
2022-09-16T16:49:19.621Z,2.20
2022-09-16T16:51:48.589Z,1.73
2022-09-16T16:54:15.240Z,1.60
2022-09-16T16:56:42.313Z,2.00
2022-09-16T16:59:09.074Z,2.10
2022-09-16T17:01:36.081Z,1.63
2022-09-16T17:04:03.072Z,1.60
2022-09-16T17:06:35.018Z,2.27
2022-09-16T17:09:01.905Z,1.60
2022-09-16T17:11:28.735Z,2.00
2022-09-16T17:14:04.920Z,1.80
2022-09-16T17:16:31.853Z,1.67
2022-09-16T17:19:00.150Z,1.63
2022-09-16T17:21:34.423Z,1.90
2022-09-16T17:24:01.260Z,1.90
2022-09-16T17:26:28.289Z,2.27
2022-09-16T17:28:57.836Z,2.10
2022-09-16T17:31:29.964Z,1.70
2022-09-16T17:33:58.763Z,1.80
2022-09-16T17:36:26.308Z,1.50
2022-09-16T17:39:20.899Z,1.70
2022-09-16T17:41:51.535Z,1.70
2022-09-16T17:44:19.049Z,2.10
2022-09-16T17:46:46.882Z,1.63
2022-09-16T17:49:17.029Z,1.70
2022-09-16T17:51:43.973Z,2.03
2022-09-16T17:54:11.166Z,2.37
2022-09-16T17:56:37.806Z,2.03
2022-09-16T17:59:04.515Z,2.10
2022-09-16T18:01:31.749Z,1.60
2022-09-16T18:04:02.930Z,2.27
2022-09-16T18:06:32.161Z,1.60
2022-09-16T18:09:04.015Z,1.50
2022-09-16T18:11:31.038Z,1.90
2022-09-16T18:13:59.737Z,1.67
2022-09-16T18:16:27.694Z,1.90
2022-09-16T18:19:04.111Z,2.10
2022-09-16T18:21:31.513Z,1.80
2022-09-16T18:24:00.580Z,1.93
2022-09-16T18:26:35.083Z,1.80
2022-09-16T18:29:11.168Z,2.00
2022-09-16T18:31:43.634Z,2.00
2022-09-16T18:34:10.966Z,1.63
2022-09-16T18:36:39.120Z,1.40
2022-09-16T18:39:07.523Z,1.50
2022-09-16T18:41:36.449Z,2.00
2022-09-16T18:44:07.489Z,1.93
2022-09-16T18:46:36.416Z,1.50
2022-09-16T18:49:06.452Z,1.60
2022-09-16T18:51:44.339Z,2.53
2022-09-16T18:54:18.356Z,1.80
2022-09-16T18:56:45.503Z,1.60
2022-09-16T18:59:23.395Z,1.67
2022-09-16T19:01:52.073Z,1.60
2022-09-16T19:04:21.303Z,1.70
2022-09-16T19:06:51.873Z,1.50
2022-09-16T19:09:20.788Z,2.00
2022-09-16T19:11:47.778Z,1.50
2022-09-16T19:14:15.095Z,1.53
2022-09-16T19:16:43.347Z,1.50
2022-09-16T19:19:11.207Z,1.60
2022-09-16T19:21:38.281Z,1.60
2022-09-16T19:24:07.737Z,1.50
2022-09-16T19:26:43.728Z,1.80
2022-09-16T19:29:10.932Z,1.33
2022-09-16T19:31:40.729Z,1.57
2022-09-16T19:34:10.057Z,1.60
2022-09-16T19:36:37.596Z,1.50
2022-09-16T19:39:05.627Z,1.20
2022-09-16T19:41:34.268Z,1.83
2022-09-16T19:44:03.640Z,1.63
2022-09-16T19:46:33.995Z,2.00
2022-09-16T19:49:00.756Z,1.70
2022-09-16T19:51:29.092Z,1.90
2022-09-16T19:54:01.505Z,1.80
2022-09-16T19:56:30.317Z,1.87
2022-09-16T19:59:01.368Z,1.60
2022-09-16T20:01:33.411Z,1.87
2022-09-16T20:04:01.307Z,1.60
2022-09-16T20:06:31.756Z,2.50
2022-09-16T20:09:03.253Z,2.13
2022-09-16T20:11:32.545Z,1.90
2022-09-16T20:14:01.203Z,1.83
2022-09-16T20:16:34.386Z,1.90
2022-09-16T20:19:01.987Z,1.73
2022-09-16T20:21:29.827Z,2.10
2022-09-16T20:23:56.776Z,2.10
2022-09-16T20:26:23.923Z,1.70
2022-09-16T20:28:52.120Z,2.00
2022-09-16T20:31:25.419Z,1.73
2022-09-16T20:33:54.108Z,1.50
2022-09-16T20:36:31.250Z,1.70
2022-09-16T20:39:09.054Z,1.90
2022-09-16T20:41:39.161Z,1.80
2022-09-16T20:44:06.636Z,1.90
2022-09-16T20:46:39.589Z,2.17
2022-09-16T20:49:25.332Z,1.77
2022-09-16T20:51:52.091Z,1.63
2022-09-16T20:54:18.842Z,1.80
2022-09-16T20:56:56.603Z,1.87
2022-09-16T20:59:23.428Z,2.77
2022-09-16T21:01:50.194Z,2.17
2022-09-16T21:04:23.021Z,1.93
2022-09-16T21:06:49.669Z,2.20
2022-09-16T21:09:16.462Z,1.63
2022-09-16T21:11:45.923Z,1.90
2022-09-16T21:14:15.204Z,2.10
2022-09-16T21:16:43.097Z,2.00
2022-09-16T21:19:10.802Z,2.13
2022-09-16T21:21:40.502Z,1.77
2022-09-16T21:24:15.096Z,2.03
2022-09-16T21:26:41.929Z,1.87
2022-09-16T21:29:10.909Z,1.80
2022-09-16T21:31:42.063Z,1.80
2022-09-16T21:34:14.280Z,1.60
2022-09-16T21:36:41.461Z,2.63
2022-09-16T21:39:08.534Z,1.90
2022-09-16T21:41:35.340Z,1.83
2022-09-16T21:44:03.790Z,1.57
2022-09-16T21:46:43.116Z,1.47
2022-09-16T21:49:19.214Z,1.70
2022-09-16T21:51:45.864Z,1.53
2022-09-16T21:54:19.075Z,1.90
2022-09-16T21:56:46.685Z,1.30
2022-09-16T21:59:13.292Z,1.53
2022-09-16T22:01:39.891Z,1.33
2022-09-16T22:04:11.356Z,1.77
2022-09-16T22:06:37.931Z,1.43
2022-09-16T22:09:07.773Z,1.70
2022-09-16T22:11:35.950Z,1.33
2022-09-16T22:14:07.307Z,1.30
2022-09-16T22:16:37.189Z,1.30
2022-09-16T22:19:12.891Z,1.30
2022-09-16T22:21:44.684Z,1.40
2022-09-16T22:24:11.628Z,1.40
2022-09-16T22:26:38.940Z,1.70
2022-09-16T22:29:09.591Z,1.40
2022-09-16T22:31:37.653Z,1.33
2022-09-16T22:34:04.659Z,1.33
2022-09-16T22:36:35.724Z,1.60
2022-09-16T22:39:10.766Z,1.23
2022-09-16T22:41:37.392Z,1.10
2022-09-16T22:44:11.776Z,1.63
2022-09-16T22:46:43.915Z,1.83
2022-09-16T22:49:11.042Z,1.50
2022-09-16T22:51:38.300Z,1.70
2022-09-16T22:54:05.290Z,1.70
2022-09-16T22:56:33.465Z,2.00
2022-09-16T22:59:02.161Z,1.83
2022-09-16T23:01:31.977Z,1.93
2022-09-16T23:04:00.799Z,2.13
2022-09-16T23:06:29.809Z,2.10
2022-09-16T23:08:56.821Z,1.50
2022-09-16T23:11:29.227Z,1.70
2022-09-16T23:13:56.385Z,2.00
2022-09-16T23:16:26.962Z,2.00
2022-09-16T23:19:00.081Z,1.67
2022-09-16T23:21:26.772Z,2.20
2022-09-16T23:24:00.367Z,2.27
2022-09-16T23:26:30.446Z,2.07
2022-09-16T23:28:58.965Z,2.17
2022-09-16T23:31:28.000Z,1.90
2022-09-16T23:33:55.310Z,2.40
2022-09-16T23:36:25.819Z,2.07
2022-09-16T23:38:53.719Z,2.37
2022-09-16T23:41:23.493Z,2.63
2022-09-16T23:43:50.458Z,2.30
2022-09-16T23:46:19.328Z,2.43
2022-09-16T23:48:46.719Z,2.60
2022-09-16T23:51:14.050Z,2.83
2022-09-16T23:53:42.492Z,2.80
2022-09-16T23:56:11.372Z,2.73
2022-09-16T23:58:38.270Z,2.40
